Hlavní strana
METAR-TAF:

METAR-TAF

Letiště :

Krasnojarsk, Rusko

zeměpisná šířka: 56-10-18N, zeměpisná délka: 092-29-36E, výška: 287 m

Aktuální stav počasí

Zpráva byla vytvořena před 40 minutami, v 11:30 UTC
Jižní vítr 4 kt, proměnlivý mezi východojihovýchodním a jihojihozápadním
Teplota 11°C
Vlhkost vzduchu 24%
Tlak 1018 hPa
Viditelnost 10 km a více
Žádná oblačnost pod 1500 m, nevyskytují se cumulonimby.

METAR: UNKL 231130Z 17002MPS 120V200 CAVOK 11/M09 Q1018 R29/CLRD65 NOSIG RMK QFE738

Čas: 19:10 (12:10 UTC)

Předpověď počasí

Zpráva byla vytvořena před 1 hodinou a 10 minutami, v 11:00 UTC
Předpověď platná od 23 v 12 UTC do 24 v 12 UTC
Jihozápadní vítr 6 kt s nárazy do 19 kt
Viditelnost 10 km a více
Žádná oblačnost pod 1500 m, nevyskytují se cumulonimby.
Od 24 v 0800 UTC
Západní vítr 6 kt s nárazy do 19 kt
Viditelnost 10 km a více
Polojasno ve výšce 3000 ft

TAF: UNKL 231100Z 2312/2412 22003G10MPS CAVOK FM240800 26003G10MPS 9999 SCT030

Stav a předpovědi počasí z více než 4 000 letišť (zprávy METAR a TAF).

Červené a žluté tečky na mapě představují dostupné meteorologické stanice.

Když kurzor umístíte na tečku, zobrazí se název stanice.

Pak kliknutím zobrazíte stav a předpověď počasí.

Chcete-li změnit mapu, kliknutím na zelené tlačítko se znaménkem +mapu přiblížíte, kliknutím na zelené tlačítko se znaménkem – mapu oddálíte a kliknutím na zelené šipky přejdete na sousední mapy.


METAR-TAF: